Jasper, TX (75951)

12:50 PM CDT on August 30, 2016 (GMT -0500)
North Jasper | | Change Station

Elev 308 ft 30.93 °N, 94.00 °W | Updated 24 minutes ago

Scattered Clouds
Scattered Clouds
91.2 °F
Feels Like 101 °F
N
0.0
Wind Variable Wind from SSE
Gusts 5.0 mph

Today
High -- | Low -- °F
--% Chance of Precip.
Yesterday
High -- | Low -- °F
Precip. -- in
Pressure 30.01 in
Visibility 10.0 miles
Clouds Scattered Clouds 3800 ft
Scattered Clouds 4800 ft
Scattered Clouds 6000 ft
Heat Index 101 °F
Dew Point 74 °F
Humidity 57%
Rainfall 0.00 in
Snow Depth Not available.
6:51 AM 7:41 PM
Waning Crescent, 3% visible
METAR KJAS 301735Z AUTO 08004KT 10SM SCT038 SCT048 SCT060 32/24 A3001 RMK AO2 T03240235
Pressure 30.01 in
Visibility 10.0 miles
Clouds Scattered Clouds 3800 ft
Scattered Clouds 4800 ft
Scattered Clouds 6000 ft
Heat Index 101 °F
Dew Point 74 °F
Humidity 57%
Rainfall 0.00 in
Snow Depth Not available.
6:51 AM 7:41 PM
Waning Crescent, 3% visible
METAR KJAS 301735Z AUTO 08004KT 10SM SCT038 SCT048 SCT060 32/24 A3001 RMK AO2 T03240235

10-Day Weather Forecast

Almanac

Astronomy

Aug. 30, 2016 Rise Set
Actual Time
Civil Twilight
Nautical Twilight
Astronomical Twilight
Moon
Length of Visible Light
Length of Day
Tomorrow will be .
, % of the Moon is Illuminated

Today's Extremes

State Highs State Lows

Community

WunderPhotos

Upload Photos

1,935,853 photos uploaded!

WunderBlog® & News

Nearby

Air Quality

  Air Quality AQ Index Pollutant
Not available.

Snow Depth

Station Depth Elevation

Earthquake Activity

City Distance Mag. Time & Date
Minimum magnitude displayed is 2.5.

Coastal Water Temperatures

Place Temperature

Stations

Nearby Weather Stations

Station Location Temp. Windchill Dew Point Humidity Wind Precip. Elev Updated Type
                   

Watches & Warnings

There are currently no watches in effect.